Time;durP1;ratioP1;P1;durP2;ratioP2;P2;SDS_P1;SDS_P2;PMS_P1;PMS_P2;Temp;Humidity;BMP_temperature;BMP_pressure;BME280_temperature;BME280_humidity;BME280_pressure;Samples;Min_cycle;Max_cycle;Signal;HPM_P1;HPM_P2
2023/04/05 00:01:28;;;;;;;4.13;3.08;;;3.80;99.90;;;;;;4992033;28;20038;-50
2023/04/05 00:03:56;;;;;;;3.67;3.22;;;3.90;99.90;;;;;;4974559;28;20089;-53
2023/04/05 00:06:25;;;;;;;4.15;3.30;;;3.80;99.90;;;;;;4992491;28;20018;-50
2023/04/05 00:09:00;;;;;;;6.43;3.72;;;3.90;99.90;;;;;;4992007;28;20097;-51
2023/04/05 00:11:30;;;;;;;;;;;3.90;99.90;;;;;;4992407;28;20070;-50
2023/04/05 00:13:58;;;;;;;7.30;3.45;;;3.80;99.90;;;;;;4991989;28;20289;-50
2023/04/05 00:16:23;;;;;;;5.45;3.63;;;3.80;99.90;;;;;;4974238;28;20030;-51
2023/04/05 00:18:50;;;;;;;4.85;3.22;;;3.70;99.90;;;;;;4975004;28;20088;-49
2023/04/05 00:21:17;;;;;;;8.23;2.90;;;3.70;99.90;;;;;;4991978;28;20071;-50
2023/04/05 00:23:43;;;;;;;4.55;2.90;;;3.70;99.90;;;;;;4991764;28;20026;-50
2023/04/05 00:26:12;;;;;;;3.97;3.22;;;3.70;99.90;;;;;;4991757;28;20025;-48
2023/04/05 00:28:38;;;;;;;5.90;3.25;;;3.60;99.90;;;;;;4991577;28;20057;-51
2023/04/05 00:31:04;;;;;;;5.32;3.40;;;3.60;99.90;;;;;;4991702;28;20195;-50
2023/04/05 00:33:30;;;;;;;8.55;4.18;;;3.50;99.90;;;;;;4991832;28;20133;-53
2023/04/05 00:35:56;;;;;;;6.78;3.35;;;3.50;99.90;;;;;;4991722;28;20101;-55
2023/04/05 00:38:21;;;;;;;8.32;4.15;;;3.40;99.90;;;;;;4991585;28;20022;-50
2023/04/05 00:40:47;;;;;;;6.88;3.95;;;3.40;99.90;;;;;;4991569;28;20038;-55
2023/04/05 00:43:13;;;;;;;4.38;3.40;;;3.30;99.90;;;;;;4991521;28;20122;-55
2023/04/05 00:45:38;;;;;;;5.65;3.35;;;3.30;99.90;;;;;;4991470;28;20034;-53
2023/04/05 00:48:05;;;;;;;5.82;3.40;;;3.30;99.90;;;;;;4991803;28;20027;-48
2023/04/05 00:50:30;;;;;;;4.15;3.05;;;3.20;99.90;;;;;;4991556;28;20027;-55
2023/04/05 00:52:59;;;;;;;7.88;3.53;;;3.20;99.90;;;;;;4991472;28;20033;-54
2023/04/05 00:55:25;;;;;;;16.02;3.97;;;3.10;99.90;;;;;;4991493;28;20070;-51
2023/04/05 00:57:52;;;;;;;6.07;3.45;;;3.00;99.90;;;;;;4991435;28;20117;-55
2023/04/05 01:00:20;;;;;;;4.30;3.40;;;3.00;99.90;;;;;;4991405;28;20471;-49
2023/04/05 01:02:53;;;;;;;3.60;3.30;;;3.00;99.90;;;;;;4991731;28;20397;-50
2023/04/05 01:05:39;;;;;;;5.70;3.63;;;2.80;99.90;;;;;;4991269;28;20030;-54
2023/04/05 01:08:25;;;;;;;6.63;4.93;;;3.00;99.90;;;;;;4991171;28;20026;-54
2023/04/05 01:10:54;;;;;;;5.63;3.23;;;2.90;99.90;;;;;;4994717;28;20022;-49
2023/04/05 01:13:21;;;;;;;3.88;3.13;;;2.80;99.90;;;;;;4994812;28;20113;-50
2023/04/05 01:15:47;;;;;;;8.15;4.95;;;2.80;99.90;;;;;;4995054;28;20125;-50
2023/04/05 01:18:13;;;;;;;5.10;3.30;;;2.90;99.90;;;;;;4994550;28;20576;-53
2023/04/05 01:20:44;;;;;;;8.75;3.95;;;2.90;99.90;;;;;;4994639;28;20030;-54
2023/04/05 01:23:40;;;;;;;4.05;3.70;;;2.90;99.90;;;;;;4994901;28;20490;-57
2023/04/05 01:26:17;;;;;;;10.10;3.70;;;2.80;99.90;;;;;;4994851;28;20026;-50
2023/04/05 01:29:09;;;;;;;5.05;3.47;;;2.70;99.90;;;;;;4976941;28;20030;-51
2023/04/05 01:31:53;;;;;;;7.18;3.92;;;2.70;99.90;;;;;;4994452;28;20026;-50
2023/04/05 01:34:40;;;;;;;4.60;3.53;;;2.70;99.90;;;;;;4994609;28;20035;-50
2023/04/05 01:37:10;;;;;;;6.32;3.72;;;2.70;99.90;;;;;;4994466;28;20034;-51
2023/04/05 01:39:36;;;;;;;8.85;4.13;;;2.70;99.90;;;;;;4994329;28;20496;-51
2023/04/05 01:42:02;;;;;;;3.97;2.85;;;2.60;99.90;;;;;;4994165;28;20026;-52
2023/04/05 01:44:28;;;;;;;3.85;3.47;;;2.60;99.90;;;;;;4994478;28;20072;-50
2023/04/05 01:46:55;;;;;;;9.02;4.65;;;2.60;99.90;;;;;;4994394;28;20670;-49
2023/04/05 01:49:22;;;;;;;5.47;3.35;;;2.60;99.90;;;;;;4976919;28;20026;-55
2023/04/05 01:51:47;;;;;;;5.30;3.45;;;2.60;99.90;;;;;;4994138;28;20037;-49
2023/04/05 01:54:13;;;;;;;7.20;3.30;;;2.60;99.90;;;;;;4994177;28;20031;-54
2023/04/05 01:56:38;;;;;;;4.82;3.28;;;2.50;99.90;;;;;;4994050;28;20030;-50
2023/04/05 01:59:04;;;;;;;3.88;3.45;;;2.50;99.90;;;;;;4994003;28;20022;-53
2023/04/05 02:01:29;;;;;;;5.10;3.83;;;2.40;99.90;;;;;;4993892;28;20073;-47
2023/04/05 02:03:55;;;;;;;4.45;3.70;;;2.40;99.90;;;;;;4976543;28;20036;-54
2023/04/05 02:06:21;;;;;;;7.20;4.07;;;2.50;99.90;;;;;;4993877;28;20105;-51
2023/04/05 02:08:47;;;;;;;8.63;4.10;;;2.50;99.90;;;;;;4993828;28;20053;-48
2023/04/05 02:11:12;;;;;;;5.47;3.88;;;2.60;99.90;;;;;;4993891;28;20030;-47
2023/04/05 02:13:38;;;;;;;4.03;3.70;;;2.60;99.90;;;;;;4993733;28;20034;-53
2023/04/05 02:16:03;;;;;;;5.03;4.18;;;2.50;99.90;;;;;;4993719;28;20342;-54
2023/04/05 02:18:30;;;;;;;5.00;3.35;;;2.50;99.90;;;;;;4993541;28;20044;-49
2023/04/05 02:21:03;;;;;;;9.68;4.25;;;2.50;99.90;;;;;;4993001;28;20026;-49
2023/04/05 02:23:30;;;;;;;4.70;3.63;;;2.50;99.90;;;;;;4993699;28;20026;-52
2023/04/05 02:25:56;;;;;;;7.68;4.45;;;2.50;99.90;;;;;;4993812;28;20516;-49
2023/04/05 02:28:21;;;;;;;4.35;3.85;;;2.40;99.90;;;;;;4993599;28;20105;-49
2023/04/05 02:30:47;;;;;;;5.30;3.75;;;2.40;99.90;;;;;;4993899;28;20109;-51
2023/04/05 02:33:12;;;;;;;4.05;3.65;;;2.30;99.90;;;;;;4993498;28;20097;-49
2023/04/05 02:35:38;;;;;;;4.35;3.85;;;2.20;99.90;;;;;;4993637;28;20037;-52
2023/04/05 02:38:04;;;;;;;5.07;3.92;;;2.10;99.90;;;;;;4992325;28;20494;-50
2023/04/05 02:40:30;;;;;;;9.18;4.57;;;2.00;99.90;;;;;;4994057;28;20026;-49
2023/04/05 02:42:56;;;;;;;6.10;3.65;;;2.00;99.90;;;;;;4994407;28;20026;-53
2023/04/05 02:45:22;;;;;;;4.97;4.18;;;1.80;99.90;;;;;;4992873;28;20030;-52
2023/04/05 02:47:47;;;;;;;7.45;4.80;;;1.80;99.90;;;;;;4994392;28;20049;-53
2023/04/05 02:50:13;;;;;;;6.13;4.60;;;1.80;99.90;;;;;;4994083;28;20105;-52
2023/04/05 02:52:39;;;;;;;6.32;3.85;;;;;;;;;;4992897;28;20030;-49
2023/04/05 02:55:05;;;;;;;5.90;3.72;;;1.70;99.90;;;;;;4975565;28;20121;-56
2023/04/05 02:57:31;;;;;;;9.07;4.32;;;1.70;99.90;;;;;;4992900;28;20413;-50
2023/04/05 02:59:57;;;;;;;4.28;3.88;;;1.70;99.90;;;;;;4993041;28;20034;-51
2023/04/05 03:02:22;;;;;;;5.75;3.80;;;1.70;99.90;;;;;;4992633;28;20030;-50
2023/04/05 03:04:51;;;;;;;7.07;4.30;;;1.70;99.90;;;;;;4992892;28;20086;-50
2023/04/05 03:07:17;;;;;;;6.60;4.10;;;1.70;99.90;;;;;;4992839;28;20506;-53
2023/04/05 03:09:46;;;;;;;7.18;4.22;;;1.70;99.90;;;;;;4992728;28;20134;-51
2023/04/05 03:12:12;;;;;;;8.02;5.28;;;1.60;99.90;;;;;;4975137;28;20081;-55
2023/04/05 03:14:39;;;;;;;6.82;4.25;;;1.50;99.90;;;;;;4992610;28;20034;-51
2023/04/05 03:17:05;;;;;;;6.80;4.70;;;1.50;99.90;;;;;;4974763;28;20064;-50
2023/04/05 03:19:31;;;;;;;12.35;4.65;;;1.40;99.90;;;;;;4976053;28;20533;-51
2023/04/05 03:21:57;;;;;;;8.27;5.28;;;1.30;99.90;;;;;;4992835;28;20065;-53
2023/04/05 03:24:23;;;;;;;5.97;4.13;;;1.30;99.90;;;;;;4991651;28;20595;-54
2023/04/05 03:26:48;;;;;;;9.43;4.38;;;1.30;99.90;;;;;;4991185;28;20030;-51
2023/04/05 03:29:17;;;;;;;5.60;4.43;;;1.30;99.90;;;;;;4992323;28;20101;-47
2023/04/05 03:31:44;;;;;;;8.50;5.18;;;1.30;99.90;;;;;;4992438;28;20413;-50
2023/04/05 03:34:09;;;;;;;6.35;3.97;;;1.20;99.90;;;;;;4991716;28;20033;-50
2023/04/05 03:36:41;;;;;;;7.20;4.57;;;1.20;99.90;;;;;;4992170;28;20022;-53
2023/04/05 03:39:10;;;;;;;5.72;4.80;;;1.20;99.90;;;;;;4992355;28;20046;-51
2023/04/05 03:41:37;;;;;;;4.72;4.10;;;1.10;99.90;;;;;;4991865;28;20018;-54
2023/04/05 03:44:03;;;;;;;7.07;4.05;;;1.10;99.90;;;;;;4992186;28;20034;-53
2023/04/05 03:46:28;;;;;;;5.57;4.45;;;1.10;99.90;;;;;;4992177;28;20097;-51
2023/04/05 03:48:56;;;;;;;8.38;4.45;;;1.00;99.90;;;;;;4992215;28;20573;-52
2023/04/05 03:51:21;;;;;;;6.47;4.72;;;1.00;99.90;;;;;;4992153;28;20395;-51
2023/04/05 03:53:47;;;;;;;8.23;4.18;;;1.00;99.90;;;;;;4974571;28;20037;-55
2023/04/05 03:56:12;;;;;;;4.88;4.13;;;1.00;99.90;;;;;;4992024;28;20105;-52
2023/04/05 03:58:38;;;;;;;4.65;4.25;;;1.00;99.90;;;;;;4974517;28;20117;-52
2023/04/05 04:01:03;;;;;;;6.63;5.03;;;1.00;99.90;;;;;;4992285;28;20106;-55
2023/04/05 04:03:29;;;;;;;7.97;6.05;;;1.10;99.90;;;;;;4992469;28;20093;-51
2023/04/05 04:05:56;;;;;;;11.07;5.00;;;1.00;99.90;;;;;;4992036;28;20015;-54
2023/04/05 04:08:22;;;;;;;6.90;5.50;;;1.00;99.90;;;;;;4974705;28;20026;-50
2023/04/05 04:10:48;;;;;;;10.00;4.97;;;1.10;99.90;;;;;;4992181;28;20034;-53
2023/04/05 04:13:14;;;;;;;8.07;5.05;;;1.00;99.90;;;;;;4992157;28;20031;-51
2023/04/05 04:15:39;;;;;;;8.70;5.25;;;1.10;99.90;;;;;;4992326;28;20089;-54
2023/04/05 04:18:05;;;;;;;14.25;5.50;;;1.10;99.90;;;;;;4991930;28;20089;-54
2023/04/05 04:20:31;;;;;;;14.68;5.43;;;1.00;99.90;;;;;;4992171;28;20137;-52
2023/04/05 04:22:57;;;;;;;5.75;4.95;;;1.10;99.90;;;;;;4991821;28;20027;-57
2023/04/05 04:25:25;;;;;;;9.85;5.13;;;1.10;99.90;;;;;;4991911;28;20031;-55
2023/04/05 04:27:51;;;;;;;6.57;5.22;;;1.10;99.90;;;;;;4991886;28;20026;-52
2023/04/05 04:30:21;;;;;;;6.65;4.75;;;1.10;99.90;;;;;;4992001;28;20050;-52
2023/04/05 04:32:54;;;;;;;6.47;4.63;;;1.00;99.90;;;;;;4991719;28;20026;-55
2023/04/05 04:35:24;;;;;;;5.82;4.45;;;1.10;99.90;;;;;;4991703;28;20026;-51
2023/04/05 04:37:56;;;;;;;7.55;5.25;;;1.10;99.90;;;;;;4991902;28;20105;-51
2023/04/05 04:40:24;;;;;;;10.35;4.90;;;1.10;99.90;;;;;;4991909;28;20022;-52
2023/04/05 04:42:50;;;;;;;6.80;5.03;;;1.20;99.90;;;;;;4991759;28;20030;-49
2023/04/05 04:45:18;;;;;;;6.25;5.20;;;1.10;99.90;;;;;;4993983;28;20106;-50
2023/04/05 04:47:45;;;;;;;8.05;5.70;;;1.20;99.90;;;;;;4995608;28;20030;-56
2023/04/05 04:50:12;;;;;;;9.50;5.50;;;1.20;99.90;;;;;;4995490;28;20153;-54
2023/04/05 04:52:39;;;;;;;6.38;5.75;;;1.20;99.90;;;;;;4995309;28;20027;-54
2023/04/05 04:55:07;;;;;;;8.32;6.53;;;1.20;99.90;;;;;;4995453;28;20101;-49
2023/04/05 04:57:33;;;;;;;12.50;6.13;;;1.30;99.90;;;;;;4995256;28;20030;-53
2023/04/05 04:59:58;;;;;;;7.97;6.63;;;1.30;99.90;;;;;;4995202;28;20078;-51
2023/04/05 05:02:25;;;;;;;9.60;6.85;;;1.20;99.90;;;;;;4994979;28;20085;-54
2023/04/05 05:04:50;;;;;;;8.65;6.05;;;1.20;99.90;;;;;;4994812;28;20030;-55
2023/04/05 05:07:16;;;;;;;9.30;5.78;;;1.30;99.90;;;;;;4995080;28;20398;-56
2023/04/05 05:09:42;;;;;;;7.55;6.20;;;1.30;99.90;;;;;;4994973;28;20561;-50
2023/04/05 05:12:07;;;;;;;10.95;6.57;;;1.30;99.90;;;;;;4994943;28;20495;-51
2023/04/05 05:14:33;;;;;;;13.02;5.97;;;1.30;99.90;;;;;;4995126;28;20413;-51
2023/04/05 05:16:58;;;;;;;9.13;6.00;;;1.30;99.90;;;;;;4995147;28;20508;-50
2023/04/05 05:19:24;;;;;;;11.40;5.95;;;1.40;99.90;;;;;;4996191;28;20375;-54
2023/04/05 05:21:51;;;;;;;14.98;6.68;;;1.40;99.90;;;;;;4996214;28;20406;-47
2023/04/05 05:24:17;;;;;;;10.80;6.22;;;1.50;99.90;;;;;;4994911;28;20030;-52
2023/04/05 05:26:43;;;;;;;6.68;5.55;;;1.70;99.90;;;;;;4994637;28;20018;-50
2023/04/05 05:29:08;;;;;;;8.35;5.63;;;1.70;99.90;;;;;;4994674;28;20023;-51
2023/04/05 05:31:35;;;;;;;9.43;6.03;;;1.90;99.90;;;;;;4994532;28;20030;-48
2023/04/05 05:34:00;;;;;;;9.32;7.05;;;2.00;99.90;;;;;;4994744;28;20376;-50
2023/04/05 05:36:26;;;;;;;15.10;6.20;;;2.20;99.90;;;;;;4994532;28;20034;-51
2023/04/05 05:38:53;;;;;;;9.52;6.75;;;2.30;99.90;;;;;;4994955;28;20046;-51
2023/04/05 05:41:20;;;;;;;7.95;6.55;;;2.40;99.90;;;;;;4994467;28;20022;-51
2023/04/05 05:43:46;;;;;;;15.27;6.28;;;2.60;99.90;;;;;;4994347;28;20019;-51
2023/04/05 05:46:11;;;;;;;11.15;6.03;;;2.80;99.90;;;;;;4993107;28;20320;-53
2023/04/05 05:48:37;;;;;;;6.80;5.05;;;3.10;99.90;;;;;;4994060;28;20058;-51
2023/04/05 05:51:08;;;;;;;9.15;6.00;;;3.40;99.90;;;;;;4994332;28;20038;-53
2023/04/05 05:53:37;;;;;;;9.43;5.97;;;3.70;99.90;;;;;;4994194;28;20022;-53
2023/04/05 05:56:03;;;;;;;13.38;5.82;;;3.90;99.90;;;;;;4993206;28;20065;-53
2023/04/05 05:58:29;;;;;;;6.95;5.95;;;4.10;99.90;;;;;;4994152;28;20053;-52
2023/04/05 06:00:55;;;;;;;8.20;5.80;;;4.40;99.90;;;;;;4994128;28;20026;-51
2023/04/05 06:03:21;;;;;;;6.93;5.70;;;4.60;99.90;;;;;;4976563;28;20056;-50
2023/04/05 06:05:55;;;;;;;9.65;5.43;;;4.90;99.90;;;;;;4993781;28;20050;-51
2023/04/05 06:08:21;;;;;;;8.20;5.60;;;5.10;99.90;;;;;;4993799;28;20470;-51
2023/04/05 06:10:48;;;;;;;9.35;4.90;;;5.20;99.90;;;;;;4994061;28;20030;-53
2023/04/05 06:13:13;;;;;;;5.65;4.70;;;5.50;99.90;;;;;;4994051;28;20033;-49
2023/04/05 06:15:39;;;;;;;12.18;5.28;;;5.80;99.40;;;;;;4993865;28;20026;-50
2023/04/05 06:18:04;;;;;;;6.28;5.28;;;5.90;98.90;;;;;;5024831;22;20038;-50
2023/04/05 06:20:30;;;;;;;7.07;5.10;;;6.00;98.90;;;;;;4995576;28;20032;-44
2023/04/05 06:22:55;;;;;;;10.07;5.28;;;6.10;98.60;;;;;;5013065;28;20033;-44
2023/04/05 06:25:21;;;;;;;8.15;5.43;;;6.30;99.00;;;;;;5013041;28;20026;-47
2023/04/05 06:27:46;;;;;;;9.85;5.20;;;6.40;98.60;;;;;;5012890;28;20022;-48
2023/04/05 06:30:12;;;;;;;9.35;6.40;;;7.20;97.10;;;;;;5013061;28;20041;-44
2023/04/05 06:32:38;;;;;;;5.82;4.80;;;7.30;96.90;;;;;;5012862;28;20058;-44
2023/04/05 06:35:04;;;;;;;6.20;4.82;;;7.40;96.40;;;;;;5012900;28;20402;-44
2023/04/05 06:37:30;;;;;;;8.20;5.20;;;7.60;96.10;;;;;;5012634;28;20040;-45
2023/04/05 06:39:55;;;;;;;9.50;5.35;;;7.80;96.10;;;;;;5012881;28;20105;-51
2023/04/05 06:42:21;;;;;;;12.05;5.80;;;8.30;95.10;;;;;;5013654;28;20052;-46
2023/04/05 06:44:46;;;;;;;9.15;5.00;;;8.80;94.70;;;;;;5011127;28;20025;-53
2023/04/05 06:47:12;;;;;;;7.18;4.50;;;9.50;92.40;;;;;;4995292;28;20026;-45
2023/04/05 06:49:37;;;;;;;4.88;4.13;;;9.70;91.70;;;;;;5012594;28;20026;-47
2023/04/05 06:52:05;;;;;;;5.22;4.45;;;10.20;90.70;;;;;;5012465;28;20037;-50
2023/04/05 06:54:32;;;;;;;9.48;4.22;;;10.10;91.00;;;;;;5012658;28;20033;-44
2023/04/05 06:56:58;;;;;;;6.47;3.75;;;10.70;90.50;;;;;;4994315;28;20449;-46
2023/04/05 06:59:23;;;;;;;5.38;3.50;;;11.40;87.30;;;;;;5012847;28;20037;-46
2023/04/05 07:01:49;;;;;;;5.07;3.50;;;11.50;84.10;;;;;;4994513;28;20037;-48
2023/04/05 07:04:15;;;;;;;6.65;4.80;;;11.20;83.40;;;;;;5013065;28;20022;-48
2023/04/05 07:06:40;;;;;;;5.75;4.18;;;10.30;85.90;;;;;;5012440;28;20536;-46
2023/04/05 07:09:06;;;;;;;7.05;4.55;;;10.20;86.00;;;;;;5011968;28;20105;-48
2023/04/05 07:11:31;;;;;;;5.13;4.60;;;10.00;86.60;;;;;;5009773;28;20068;-45
2023/04/05 07:13:58;;;;;;;9.63;4.15;;;10.20;86.60;;;;;;5012071;28;20017;-47
2023/04/05 07:16:24;;;;;;;5.95;3.80;;;10.80;84.80;;;;;;5012072;28;20049;-48
2023/04/05 07:18:50;;;;;;;3.78;3.47;;;11.10;84.10;;;;;;5011769;28;20099;-49
2023/04/05 07:21:15;;;;;;;8.27;4.47;;;11.50;83.00;;;;;;4989242;28;20026;-51
2023/04/05 07:23:41;;;;;;;7.90;3.67;;;11.50;80.60;;;;;;4994381;28;20374;-50
2023/04/05 07:26:07;;;;;;;5.75;3.58;;;11.90;80.40;;;;;;4994228;28;20469;-50
2023/04/05 07:28:34;;;;;;;5.35;3.65;;;12.20;79.40;;;;;;5011962;28;20028;-47
2023/04/05 07:31:00;;;;;;;5.30;3.33;;;12.00;78.30;;;;;;5012088;28;20390;-48
2023/04/05 07:33:26;;;;;;;8.40;3.95;;;12.00;78.20;;;;;;5011799;28;20068;-48
2023/04/05 07:35:55;;;;;;;4.78;3.80;;;13.00;78.00;;;;;;5012147;28;20049;-49
2023/04/05 07:38:21;;;;;;;4.05;3.65;;;13.20;74.40;;;;;;5011559;28;20026;-49
2023/04/05 07:40:50;;;;;;;6.30;3.28;;;12.40;74.10;;;;;;5011648;28;20037;-50
2023/04/05 07:43:17;;;;;;;4.50;3.90;;;11.80;75.30;;;;;;5011791;28;20517;-50
2023/04/05 07:45:43;;;;;;;3.90;3.45;;;12.10;75.10;;;;;;5011240;28;20092;-51
2023/04/05 07:48:08;;;;;;;6.90;3.67;;;12.30;76.40;;;;;;5011283;28;20541;-48
2023/04/05 07:50:35;;;;;;;5.05;3.50;;;13.00;74.60;;;;;;5011438;28;20397;-53
2023/04/05 07:53:01;;;;;;;4.38;3.00;;;13.10;73.60;;;;;;5011698;28;20087;-52
2023/04/05 07:55:27;;;;;;;6.35;3.78;;;13.70;70.00;;;;;;5011841;28;20609;-51
2023/04/05 07:57:52;;;;;;;6.78;3.85;;;13.60;69.60;;;;;;5011449;28;20061;-53
2023/04/05 08:00:19;;;;;;;4.95;3.13;;;13.60;68.30;;;;;;5011772;28;20030;-52
2023/04/05 08:02:44;;;;;;;5.30;2.90;;;13.00;68.00;;;;;;5011794;28;20553;-51
2023/04/05 08:05:10;;;;;;;5.95;3.30;;;12.90;68.60;;;;;;5011996;28;20113;-51
2023/04/05 08:07:36;;;;;;;4.88;2.95;;;12.70;68.40;;;;;;5011683;28;20160;-47
2023/04/05 08:10:03;;;;;;;4.45;3.15;;;12.80;92.60;;;;;;4998984;28;20364;-45
2023/04/05 08:12:30;;;;;;;5.63;3.25;;;12.70;92.80;;;;;;4992345;28;20038;-50
2023/04/05 08:14:56;;;;;;;5.10;3.33;;;13.30;70.20;;;;;;4993583;28;20058;-44
2023/04/05 08:17:22;;;;;;;4.28;3.85;;;13.90;68.20;;;;;;4993647;28;20061;-46
2023/04/05 08:19:48;;;;;;;5.43;3.05;;;13.80;67.10;;;;;;5013109;28;20029;-47
2023/04/05 08:22:15;;;;;;;5.47;3.30;;;13.70;66.40;;;;;;5014713;28;20360;-46
2023/04/05 08:24:40;;;;;;;6.80;3.70;;;13.40;67.00;;;;;;5015254;28;20536;-43
2023/04/05 08:27:06;;;;;;;7.07;3.50;;;13.40;66.30;;;;;;5015071;28;20038;-43
2023/04/05 08:29:32;;;;;;;7.82;3.05;;;13.30;66.10;;;;;;5015181;28;20029;-46
2023/04/05 08:31:57;;;;;;;5.38;3.58;;;13.00;67.50;;;;;;5015137;28;20026;-42
2023/04/05 08:34:23;;;;;;;6.28;3.10;;;13.10;66.50;;;;;;5015262;28;20022;-44
2023/04/05 08:36:48;;;;;;;2.80;2.60;;;12.90;66.70;;;;;;5014868;28;20037;-43
2023/04/05 08:39:14;;;;;;;6.38;3.17;;;13.00;67.90;;;;;;5014846;28;20029;-51
2023/04/05 08:41:44;;;;;;;3.45;2.75;;;13.50;67.30;;;;;;5015489;28;20057;-50
2023/04/05 08:44:10;;;;;;;3.90;2.63;;;14.10;65.50;;;;;;5014832;28;20073;-42
2023/04/05 08:46:36;;;;;;;3.90;2.90;;;14.30;64.50;;;;;;5015206;28;20049;-43
2023/04/05 08:49:06;;;;;;;9.63;3.03;;;14.90;63.10;;;;;;5014635;28;20018;-48
2023/04/05 08:51:32;;;;;;;5.65;3.45;;;15.00;61.30;;;;;;5014961;28;20401;-47
2023/04/05 08:53:59;;;;;;;5.07;3.00;;;14.20;62.90;;;;;;5015133;28;20029;-43
2023/04/05 08:56:27;;;;;;;3.55;2.65;;;14.20;62.80;;;;;;5014446;28;20053;-48
2023/04/05 08:59:01;;;;;;;4.72;2.75;;;14.40;61.20;;;;;;5013670;28;20474;-43
2023/04/05 09:01:29;;;;;;;7.53;2.70;;;15.20;61.20;;;;;;5014433;28;20029;-47
2023/04/05 09:03:58;;;;;;;3.47;2.60;;;15.50;60.40;;;;;;5014381;28;20022;-49
2023/04/05 09:06:26;;;;;;;4.18;2.58;;;15.70;60.30;;;;;;4997133;28;20542;-41
2023/04/05 09:08:55;;;;;;;4.43;2.83;;;15.80;59.00;;;;;;5011185;28;20025;-41
2023/04/05 09:11:21;;;;;;;3.67;2.67;;;16.00;59.10;;;;;;5014366;28;20235;-48
2023/04/05 09:13:47;;;;;;;10.68;3.88;;;16.40;58.30;;;;;;4996267;28;20030;-47
2023/04/05 09:16:15;;;;;;;5.28;2.78;;;16.30;57.20;;;;;;5014013;28;20441;-45
2023/04/05 09:18:41;;;;;;;4.15;2.78;;;15.70;57.50;;;;;;5013856;28;20025;-45
2023/04/05 09:21:08;;;;;;;6.05;2.90;;;14.80;58.80;;;;;;5013988;28;20033;-47
2023/04/05 09:23:33;;;;;;;6.80;3.10;;;14.40;60.10;;;;;;5013499;28;20036;-53
2023/04/05 09:25:59;;;;;;;7.40;3.40;;;14.20;60.40;;;;;;5013872;28;20485;-48
2023/04/05 09:28:41;;;;;;;4.38;3.10;;;14.20;61.40;;;;;;5013589;28;20026;-46
2023/04/05 09:31:07;;;;;;;4.82;3.30;;;13.30;61.60;;;;;;5010526;28;20486;-46
2023/04/05 09:33:33;;;;;;;6.00;3.67;;;13.50;62.20;;;;;;5014172;28;20049;-44
2023/04/05 09:35:58;;;;;;;10.82;8.40;;;13.20;61.70;;;;;;4996514;28;20080;-49
2023/04/05 09:38:44;;;;;;;15.43;9.52;;;12.70;63.20;;;;;;5012975;28;20022;-48
2023/04/05 09:41:10;;;;;;;7.38;4.00;;;12.10;64.20;;;;;;5004884;28;20034;-47
2023/04/05 09:43:40;;;;;;;6.65;4.00;;;11.70;64.70;;;;;;5013598;28;20079;-41
2023/04/05 09:46:06;;;;;;;4.85;3.75;;;11.40;64.80;;;;;;5013546;28;20026;-44
2023/04/05 09:48:45;;;;;;;9.25;3.30;;;11.20;65.00;;;;;;4995795;28;20033;-41
2023/04/05 09:51:11;;;;;;;5.97;3.75;;;11.00;65.20;;;;;;5011987;28;20021;-49
2023/04/05 09:53:36;;;;;;;5.70;3.28;;;11.30;66.30;;;;;;5011575;28;20506;-51
2023/04/05 09:56:09;;;;;;;11.05;3.63;;;11.80;64.80;;;;;;5012175;28;20087;-45
2023/04/05 09:58:35;;;;;;;3.28;2.90;;;12.00;64.40;;;;;;4993529;28;20437;-46
2023/04/05 10:01:03;;;;;;;5.00;3.55;;;12.00;63.40;;;;;;5001254;28;20026;-50
2023/04/05 10:03:29;;;;;;;4.35;3.17;;;12.30;63.70;;;;;;5012016;28;20071;-47
2023/04/05 10:05:55;;;;;;;7.35;3.60;;;12.60;62.80;;;;;;5013579;28;20018;-46
2023/04/05 10:08:22;;;;;;;3.30;3.00;;;12.30;62.60;;;;;;5013384;28;20030;-46
2023/04/05 10:10:50;;;;;;;3.45;3.10;;;11.90;63.00;;;;;;5013352;28;20029;-52
2023/04/05 10:13:18;;;;;;;6.80;4.18;;;11.30;63.50;;;;;;5013127;28;20030;-45
2023/04/05 10:15:46;;;;;;;5.18;4.18;;;10.50;65.20;;;;;;5013283;28;20018;-47
2023/04/05 10:18:20;;;;;;;5.60;4.05;;;10.60;66.10;;;;;;5012356;28;20072;-48
2023/04/05 10:20:49;;;;;;;5.53;3.95;;;10.50;66.30;;;;;;5012515;28;20040;-54
2023/04/05 10:23:27;;;;;;;5.10;2.97;;;10.30;65.60;;;;;;5012707;28;20034;-46
2023/04/05 10:25:52;;;;;;;7.80;3.80;;;10.30;65.50;;;;;;4995276;28;20185;-45
2023/04/05 10:28:33;;;;;;;6.03;3.65;;;10.30;66.60;;;;;;5012132;28;20024;-47
2023/04/05 10:31:19;;;;;;;5.80;3.50;;;10.40;66.70;;;;;;5012430;28;20026;-47
2023/04/05 10:33:46;;;;;;;6.78;3.83;;;10.50;66.60;;;;;;5002239;28;20034;-47
2023/04/05 10:36:37;;;;;;;5.93;3.38;;;10.40;67.10;;;;;;5012872;28;20030;-48
2023/04/05 10:39:15;;;;;;;4.28;3.10;;;10.50;66.20;;;;;;4994560;28;20038;-43
2023/04/05 10:41:56;;;;;;;7.97;3.92;;;10.70;65.80;;;;;;5012518;28;20053;-45
2023/04/05 10:44:22;;;;;;;4.60;3.50;;;10.80;66.60;;;;;;5011651;28;20026;-50
2023/04/05 10:46:49;;;;;;;9.77;3.75;;;10.80;65.70;;;;;;5011252;28;20029;-49
2023/04/05 10:49:39;;;;;;;5.35;3.50;;;10.10;66.80;;;;;;5011642;28;20029;-51
2023/04/05 10:52:05;;;;;;;7.18;3.33;;;9.90;67.00;;;;;;5010980;28;20022;-47
2023/04/05 10:54:33;;;;;;;4.88;3.28;;;9.90;67.10;;;;;;5012730;28;20045;-45
2023/04/05 10:57:02;;;;;;;5.45;3.60;;;9.80;67.80;;;;;;5012467;28;20028;-48
2023/04/05 10:59:28;;;;;;;7.25;3.78;;;9.60;67.30;;;;;;5011636;28;20037;-45
2023/04/05 11:01:54;;;;;;;6.43;3.55;;;9.60;67.70;;;;;;5012318;28;20022;-45
2023/04/05 11:04:20;;;;;;;33.45;17.52;;;9.50;67.70;;;;;;5012399;28;20029;-48
2023/04/05 11:06:48;;;;;;;14.70;9.98;;;9.60;67.80;;;;;;5012078;28;20032;-52
2023/04/05 11:09:19;;;;;;;6.70;3.78;;;9.70;66.10;;;;;;4994188;28;20122;-45
2023/04/05 11:11:47;;;;;;;8.18;3.28;;;9.70;66.00;;;;;;5011752;28;20057;-42
2023/04/05 11:14:21;;;;;;;4.15;3.30;;;9.70;65.90;;;;;;4994291;28;20056;-46
2023/04/05 11:16:49;;;;;;;5.47;3.63;;;9.80;66.60;;;;;;5021213;28;20036;-47
2023/04/05 11:19:18;;;;;;;4.45;3.25;;;9.90;65.40;;;;;;5011743;28;20402;-43
2023/04/05 11:21:43;;;;;;;4.68;3.00;;;10.00;65.90;;;;;;5011380;28;20148;-47
2023/04/05 11:24:11;;;;;;;4.78;3.50;;;9.90;65.00;;;;;;5011972;28;20026;-51
2023/04/05 11:26:40;;;;;;;4.85;3.20;;;9.80;64.70;;;;;;5012607;28;20045;-45
2023/04/05 11:29:09;;;;;;;6.72;3.22;;;9.80;66.40;;;;;;5011876;28;20025;-43
2023/04/05 11:31:35;;;;;;;4.28;3.00;;;9.90;65.30;;;;;;5011807;28;20540;-43
2023/04/05 11:34:11;;;;;;;5.97;3.08;;;9.80;64.50;;;;;;5011565;28;20049;-45
2023/04/05 11:36:40;;;;;;;6.20;3.70;;;9.70;65.30;;;;;;5012525;28;20395;-46
2023/04/05 11:39:18;;;;;;;5.93;3.03;;;9.50;66.70;;;;;;5011663;28;20076;-46
2023/04/05 11:42:06;;;;;;;5.28;3.45;;;9.50;66.60;;;;;;5012049;28;20049;-47
2023/04/05 11:45:01;;;;;;;3.92;3.30;;;9.50;67.00;;;;;;5011685;28;20390;-43
2023/04/05 11:47:26;;;;;;;6.47;3.92;;;9.60;67.50;;;;;;4995153;28;20562;-48
2023/04/05 11:49:52;;;;;;;5.38;4.20;;;9.70;67.30;;;;;;5011667;28;20038;-43
2023/04/05 11:52:20;;;;;;;6.63;3.50;;;9.60;67.30;;;;;;5011965;28;20030;-52
2023/04/05 11:54:46;;;;;;;3.90;3.38;;;9.60;69.30;;;;;;5010515;28;20096;-41
2023/04/05 11:57:19;;;;;;;3.88;3.17;;;9.70;65.60;;;;;;5011648;28;20499;-45
2023/04/05 11:59:45;;;;;;;7.18;4.15;;;9.80;67.40;;;;;;5011580;28;20026;-40
2023/04/05 12:02:11;;;;;;;5.20;3.80;;;10.00;69.70;;;;;;5011206;28;20144;-38
2023/04/05 12:04:38;;;;;;;154.30;93.55;;;10.00;67.30;;;;;;5011931;28;20029;-39
2023/04/05 12:07:09;;;;;;;10.95;6.35;;;10.10;66.70;;;;;;5011644;28;20072;-44
2023/04/05 12:09:34;;;;;;;3.60;3.15;;;10.10;65.60;;;;;;5011428;28;20049;-45
2023/04/05 12:12:00;;;;;;;5.80;3.08;;;10.00;64.30;;;;;;5012308;28;20033;-47
2023/04/05 12:14:25;;;;;;;3.97;3.00;;;9.80;64.50;;;;;;5013333;28;20477;-43
2023/04/05 12:16:51;;;;;;;3.08;2.88;;;9.70;65.30;;;;;;5012666;28;20041;-42
2023/04/05 12:19:17;;;;;;;7.88;3.38;;;9.70;66.10;;;;;;5042711;23;20057;-50
2023/04/05 12:21:43;;;;;;;5.65;3.58;;;10.20;65.90;;;;;;5022681;28;20054;-50
2023/04/05 12:24:08;;;;;;;3.95;3.42;;;9.70;64.50;;;;;;5023763;28;20072;-50
2023/04/05 12:26:34;;;;;;;6.85;3.65;;;9.60;64.20;;;;;;5004413;28;20517;-52
2023/04/05 12:29:03;;;;;;;5.55;3.13;;;9.60;64.50;;;;;;5022468;28;20585;-54
2023/04/05 12:31:44;;;;;;;6.95;3.13;;;9.70;65.90;;;;;;5021871;28;20025;-53
2023/04/05 12:34:12;;;;;;;4.20;3.10;;;9.80;68.00;;;;;;5021726;28;20493;-51
2023/04/05 12:36:42;;;;;;;4.15;3.35;;;9.90;66.30;;;;;;5022444;28;20021;-56
2023/04/05 12:39:09;;;;;;;4.35;3.70;;;10.00;64.90;;;;;;5021843;28;20470;-55
2023/04/05 12:41:36;;;;;;;6.43;3.80;;;9.90;63.50;;;;;;5003685;28;20086;-51
2023/04/05 12:44:11;;;;;;;5.57;3.53;;;9.80;64.20;;;;;;5022268;28;20021;-56
2023/04/05 12:46:44;;;;;;;4.93;3.00;;;9.80;64.50;;;;;;5022196;28;20421;-54
2023/04/05 12:49:11;;;;;;;3.35;3.05;;;9.90;64.30;;;;;;5021828;28;20018;-52
2023/04/05 12:51:46;;;;;;;5.05;3.45;;;9.90;64.40;;;;;;5021815;28;20560;-54
2023/04/05 12:54:13;;;;;;;;;;;9.90;63.80;;;;;;5022085;28;20037;-53
2023/04/05 12:56:39;;;;;;;4.80;3.10;;;9.90;64.50;;;;;;5004961;28;19925;-54